Time;durP1;ratioP1;P1;durP2;ratioP2;P2;SDS_P1;SDS_P2;PMS_P1;PMS_P2;Temp;Humidity;BMP_temperature;BMP_pressure;BME280_temperature;BME280_humidity;BME280_pressure;Samples;Min_cycle;Max_cycle;Signal;HPM_P1;HPM_P2
2023/03/30 00:01:04;;;;;;;5.10;4.80;;;;;;;10.64;100.00;100342.38;6063146;23;20034;-75
2023/03/30 00:03:32;;;;;;;5.97;5.05;;;;;;;9.90;100.00;100236.44;6081734;23;20041;-76
2023/03/30 00:06:04;;;;;;;4.50;4.30;;;;;;;10.56;100.00;100329.72;6085703;23;20765;-75
2023/03/30 00:08:32;;;;;;;4.88;4.47;;;;;;;10.56;100.00;100329.72;6085841;23;20043;-74
2023/03/30 00:11:07;;;;;;;4.60;4.40;;;;;;;10.61;100.00;100323.38;6064744;23;20036;-75
2023/03/30 00:13:38;;;;;;;4.70;4.50;;;;;;;10.57;100.00;100323.53;6083735;23;20053;-75
2023/03/30 00:16:08;;;;;;;5.70;5.30;;;;;;;10.60;100.00;100316.41;6084000;23;20113;-76
2023/03/30 00:18:35;;;;;;;5.20;4.90;;;;;;;10.68;100.00;100301.88;6079804;23;20140;-75
2023/03/30 00:21:03;;;;;;;4.80;4.50;;;;;;;10.70;100.00;100307.91;6083093;23;20041;-74
2023/03/30 00:23:31;;;;;;;5.25;4.93;;;;;;;10.68;100.00;100307.13;6078129;23;20673;-76
2023/03/30 00:25:58;;;;;;;4.93;4.65;;;;;;;10.65;100.00;100302.09;6088000;23;20046;-76
2023/03/30 00:28:25;;;;;;;4.80;4.50;;;;;;;10.64;100.00;100308.25;6079233;23;20625;-77
2023/03/30 00:30:52;;;;;;;4.70;4.50;;;;;;;10.60;100.00;100317.25;6085047;23;20021;-74
2023/03/30 00:33:19;;;;;;;4.45;4.25;;;;;;;10.55;100.00;100312.28;6083809;23;20583;-74
2023/03/30 00:35:59;;;;;;;5.07;4.78;;;;;;;10.50;100.00;100321.34;6103726;23;20059;-75
2023/03/30 00:38:26;;;;;;;5.10;4.70;;;;;;;8.97;100.00;100082.75;6081552;23;20095;-74
2023/03/30 00:40:58;;;;;;;4.80;4.50;;;;;;;10.36;100.00;100299.41;6084404;23;20056;-75
2023/03/30 00:43:25;;;;;;;5.05;4.65;;;;;;;10.46;100.00;100312.78;6085210;23;20022;-75
2023/03/30 00:45:52;;;;;;;5.72;4.80;;;;;;;10.06;100.00;100240.78;6081183;23;20030;-75
2023/03/30 00:48:23;;;;;;;4.43;4.22;;;;;;;10.20;100.00;100230.34;6052602;23;20592;-75
2023/03/30 00:50:57;;;;;;;5.65;5.15;;;;;;;10.41;100.00;100240.56;6104406;23;20456;-75
2023/03/30 00:53:32;;;;;;;6.97;4.70;;;;;;;10.61;100.00;100240.22;6058187;23;20042;-74
2023/03/30 00:56:01;;;;;;;4.60;4.40;;;;;;;10.82;100.00;100245.94;6084624;23;20038;-74
2023/03/30 00:58:28;;;;;;;4.70;4.30;;;;;;;10.59;100.00;100187.00;6084970;23;20024;-76
2023/03/30 01:00:57;;;;;;;5.40;5.07;;;;;;;10.56;100.00;100145.19;6082424;23;20649;-75
2023/03/30 01:03:37;;;;;;;5.88;5.05;;;;;;;11.09;100.00;100214.56;6079770;23;20031;-74
2023/03/30 01:06:08;;;;;;;5.78;4.82;;;;;;;10.89;100.00;100197.41;6080839;23;20433;-78
2023/03/30 01:08:36;;;;;;;4.88;4.57;;;;;;;10.98;100.00;100215.22;6082599;23;20030;-75
2023/03/30 01:11:06;;;;;;;4.57;4.28;;;;;;;10.86;100.00;100194.13;6061219;23;20088;-74
2023/03/30 01:13:35;;;;;;;15.73;5.15;;;;;;;10.71;100.00;100167.03;6081002;23;20507;-75
2023/03/30 01:16:19;;;;;;;5.07;4.78;;;;;;;10.95;100.00;100225.91;6053979;23;20090;-74
2023/03/30 01:19:06;;;;;;;6.35;4.68;;;;;;;10.94;100.00;100218.97;6104096;23;20941;-73
2023/03/30 01:21:41;;;;;;;5.03;4.30;;;;;;;11.01;100.00;100223.84;6082110;23;20069;-75
2023/03/30 01:24:30;;;;;;;4.45;4.25;;;;;;;11.00;100.00;100233.50;6053928;23;20093;-74
2023/03/30 01:27:20;;;;;;;5.68;4.68;;;;;;;11.00;100.00;100228.22;6100564;23;20084;-74
2023/03/30 01:30:03;;;;;;;4.53;4.32;;;;;;;10.67;100.00;100184.75;6052621;23;20041;-75
2023/03/30 01:32:30;;;;;;;;;;;;;;;11.08;100.00;100239.09;6076324;23;20033;-76
2023/03/30 01:35:16;;;;;;;4.70;4.50;;;;;;;10.80;100.00;100186.63;6105355;23;19926;-76
2023/03/30 01:38:21;;;;;;;6.05;4.85;;;;;;;10.96;100.00;100217.09;6081044;23;20049;-75
2023/03/30 01:40:59;;;;;;;5.88;5.38;;;;;;;11.17;100.00;100224.59;6050287;23;20523;-74
2023/03/30 01:43:57;;;;;;;4.70;4.50;;;;;;;11.05;100.00;100199.94;6080408;23;20184;-74
2023/03/30 01:46:30;;;;;;;4.70;4.38;;;;;;;10.85;99.35;100150.44;6060309;23;20248;-75
2023/03/30 01:49:11;;;;;;;5.10;4.45;;;;;;;10.99;99.26;100184.56;6072624;23;20030;-74
2023/03/30 01:52:05;;;;;;;4.95;4.65;;;;;;;10.97;98.32;100170.69;6054993;23;20022;-74
2023/03/30 01:54:38;;;;;;;4.60;4.30;;;;;;;11.20;98.09;100197.28;6078481;23;20037;-75
2023/03/30 01:57:41;;;;;;;4.78;4.47;;;;;;;11.07;97.46;100156.03;6077309;23;20025;-74
2023/03/30 02:00:13;;;;;;;;;;;;;;;11.41;96.81;100210.84;6081759;23;20379;-74
2023/03/30 02:02:47;;;;;;;4.70;4.50;;;;;;;11.44;95.69;100187.00;6077212;23;19917;-75
2023/03/30 02:05:17;;;;;;;11.73;6.55;;;;;;;11.45;95.17;100194.78;6071490;23;20018;-76
2023/03/30 02:07:51;;;;;;;6.47;4.72;;;;;;;11.20;94.65;100148.22;6077485;23;20038;-75
2023/03/30 02:10:21;;;;;;;4.88;4.60;;;;;;;11.41;93.61;100161.78;6077451;23;20100;-75
2023/03/30 02:12:51;;;;;;;4.78;4.43;;;;;;;11.03;93.32;100096.78;6082251;23;20591;-73
2023/03/30 02:15:18;;;;;;;5.68;4.40;;;;;;;11.36;92.63;100125.25;6081541;23;20285;-74
2023/03/30 02:17:47;;;;;;;4.45;4.25;;;;;;;11.58;92.00;100143.09;6102309;23;20544;-74
2023/03/30 02:20:17;;;;;;;7.47;4.55;;;;;;;11.11;91.17;100034.09;6079654;23;20018;-75
2023/03/30 02:22:44;;;;;;;5.22;4.70;;;;;;;11.64;90.45;100118.22;6077998;23;20480;-75
2023/03/30 02:25:12;;;;;;;5.35;4.95;;;;;;;11.80;90.31;100138.25;6098739;23;20033;-75
2023/03/30 02:27:40;;;;;;;5.20;4.85;;;;;;;11.42;89.76;100063.59;6072882;23;20029;-74
2023/03/30 02:30:08;;;;;;;4.30;4.10;;;;;;;11.87;89.56;100111.44;6076243;23;20079;-74
2023/03/30 02:32:43;;;;;;;6.47;4.85;;;;;;;11.80;88.49;100097.00;6075631;23;20165;-75
2023/03/30 02:35:25;;;;;;;5.25;4.70;;;;;;;11.74;87.94;100069.34;6101480;23;20433;-75
2023/03/30 02:38:23;;;;;;;4.93;4.60;;;;;;;11.70;88.59;100049.47;6081589;23;20433;-75
2023/03/30 02:41:01;;;;;;;4.43;4.22;;;;;;;11.24;88.80;100028.88;6094013;23;20037;-76
2023/03/30 02:43:46;;;;;;;4.63;4.32;;;;;;;11.60;89.42;100100.13;6081955;23;20079;-74
2023/03/30 02:46:22;;;;;;;5.45;4.95;;;;;;;11.52;89.88;100092.75;6077432;23;20055;-77
2023/03/30 02:48:55;;;;;;;4.22;4.03;;;;;;;11.48;90.82;100094.72;6075110;23;20050;-76
2023/03/30 02:51:42;;;;;;;4.85;4.55;;;;;;;11.45;91.07;100086.22;6101976;23;20354;-75
2023/03/30 02:54:22;;;;;;;4.70;4.40;;;;;;;11.45;91.37;100086.22;6079339;23;20083;-75
2023/03/30 02:57:30;;;;;;;5.40;4.50;;;;;;;11.15;92.01;100040.00;6049072;23;20022;-73
2023/03/30 03:00:09;;;;;;;5.00;4.68;;;;;;;11.47;92.19;100076.44;6022182;23;20037;-74
2023/03/30 03:02:43;;;;;;;4.80;4.50;;;;;;;11.02;91.54;99990.03;6073636;23;20580;-77
2023/03/30 03:05:13;;;;;;;4.53;4.32;;;;;;;11.63;91.94;100087.63;6076244;23;20099;-74
2023/03/30 03:07:40;;;;;;;5.07;4.78;;;;;;;11.71;91.44;100081.88;6079195;23;20171;-74
2023/03/30 03:10:07;;;;;;;4.68;4.38;;;;;;;11.77;91.01;100071.78;6078420;23;20029;-74
2023/03/30 03:12:34;;;;;;;4.60;4.40;;;;;;;10.61;90.63;99866.78;6079459;23;20060;-75
2023/03/30 03:15:00;;;;;;;4.88;4.47;;;;;;;11.00;90.09;99944.66;6076693;23;20495;-74
2023/03/30 03:17:33;;;;;;;5.90;4.25;;;;;;;11.80;89.71;100068.09;6057662;23;20042;-73
2023/03/30 03:20:01;;;;;;;4.32;4.13;;;;;;;11.18;89.56;99969.75;6079625;23;20476;-74
2023/03/30 03:22:27;;;;;;;14.52;5.18;;;;;;;11.62;89.66;100030.75;6078009;23;20026;-74
2023/03/30 03:24:54;;;;;;;4.32;4.13;;;;;;;11.63;90.19;100036.84;6074516;23;20049;-73
2023/03/30 03:27:20;;;;;;;6.05;4.78;;;;;;;11.40;89.79;100009.47;6082227;23;20058;-74
2023/03/30 03:29:48;;;;;;;5.55;4.75;;;;;;;11.68;90.23;100067.13;6054630;23;20186;-74
2023/03/30 03:32:15;;;;;;;4.78;4.47;;;;;;;11.45;91.37;100055.53;6074866;23;20037;-74
2023/03/30 03:34:44;;;;;;;4.78;4.47;;;;;;;11.26;91.47;100031.41;6057926;23;20413;-75
2023/03/30 03:37:11;;;;;;;7.07;4.32;;;;;;;11.34;92.13;100048.34;6075964;23;20039;-76
2023/03/30 03:39:38;;;;;;;4.30;4.10;;;;;;;11.14;92.46;100027.78;6077559;23;20038;-73
2023/03/30 03:42:07;;;;;;;4.85;4.55;;;;;;;11.24;93.09;100052.50;6076570;23;20053;-73
2023/03/30 03:44:33;;;;;;;4.95;4.60;;;;;;;11.02;nan;100025.97;6056507;23;20050;-74
2023/03/30 03:47:00;;;;;;;5.57;5.07;;;;;;;11.02;94.53;100032.06;6076052;23;20034;-73
2023/03/30 03:49:26;;;;;;;5.00;4.70;;;;;;;11.33;94.79;100074.72;6081118;23;20094;-75
2023/03/30 03:51:53;;;;;;;4.60;4.40;;;;;;;11.20;95.28;100055.44;6077632;23;20496;-73
2023/03/30 03:54:19;;;;;;;5.22;4.70;;;;;;;11.38;95.76;100088.38;6076886;23;20397;-72
2023/03/30 03:56:46;;;;;;;4.28;4.07;;;;;;;11.16;95.75;100039.91;6077898;23;20475;-74
2023/03/30 03:59:12;;;;;;;4.80;4.45;;;;;;;10.89;95.75;99984.75;6077924;23;20083;-76
2023/03/30 04:01:39;;;;;;;4.38;4.18;;;;;;;8.84;95.80;99713.69;6079614;23;20010;-75
2023/03/30 04:04:06;;;;;;;4.68;4.47;;;;;;;11.22;95.94;100038.63;6093217;23;20387;-74
2023/03/30 04:06:32;;;;;;;4.85;4.55;;;;;;;10.95;95.79;100002.75;6056685;23;20032;-75
2023/03/30 04:08:59;;;;;;;5.95;5.38;;;;;;;10.63;95.46;99957.59;6076203;23;20034;-74
2023/03/30 04:11:26;;;;;;;4.55;4.32;;;;;;;10.82;95.60;99970.34;6078413;23;20461;-76
2023/03/30 04:13:52;;;;;;;4.57;4.38;;;;;;;10.87;95.40;99968.28;6073509;23;20087;-73
2023/03/30 04:16:19;;;;;;;4.50;4.30;;;;;;;11.21;95.47;100009.88;6077842;23;20331;-75
2023/03/30 04:18:45;;;;;;;5.05;4.65;;;;;;;10.31;95.02;99852.94;6078781;23;20303;-75
2023/03/30 04:21:12;;;;;;;4.55;4.30;;;;;;;11.50;94.75;100052.59;6083736;23;21242;-76
2023/03/30 04:23:38;;;;;;;4.93;4.60;;;;;;;11.39;94.98;100037.53;6078224;23;20445;-75
2023/03/30 04:26:06;;;;;;;5.43;5.13;;;;;;;11.35;94.91;100028.19;6101465;23;20413;-76
2023/03/30 04:28:34;;;;;;;4.50;4.30;;;;;;;11.55;94.67;100051.34;6064802;23;20041;-75
2023/03/30 04:31:03;;;;;;;4.65;4.43;;;;;;;11.65;93.98;100058.63;6099803;23;20104;-75
2023/03/30 04:33:34;;;;;;;6.22;4.60;;;;;;;11.50;93.26;100016.63;6081627;23;20026;-75
2023/03/30 04:36:00;;;;;;;4.53;4.32;;;;;;;11.67;91.05;100007.63;6055989;23;20034;-75
2023/03/30 04:38:28;;;;;;;4.40;4.20;;;;;;;12.32;89.47;100061.91;6082531;23;20492;-76
2023/03/30 04:40:56;;;;;;;5.35;4.80;;;;;;;12.27;85.92;100006.16;6082226;23;20502;-75
2023/03/30 04:43:23;;;;;;;4.72;4.43;;;;;;;12.58;85.08;100041.66;6106503;23;20079;-76
2023/03/30 04:45:51;;;;;;;4.85;4.55;;;;;;;12.13;84.10;99941.38;6086720;23;20083;-76
2023/03/30 04:48:18;;;;;;;7.35;4.40;;;;;;;12.61;84.17;100013.44;6104977;23;20014;-75
2023/03/30 04:50:48;;;;;;;5.10;4.70;;;;;;;12.57;84.04;100015.47;6084779;23;20248;-75
2023/03/30 04:53:16;;;;;;;10.40;4.70;;;;;;;12.63;83.94;100022.06;6079155;23;20519;-75
2023/03/30 04:55:47;;;;;;;4.82;4.53;;;;;;;12.72;83.27;100011.72;6083209;23;20030;-74
2023/03/30 04:58:13;;;;;;;5.82;4.65;;;;;;;13.00;81.48;100000.97;6098142;23;20014;-76
2023/03/30 05:00:40;;;;;;;6.68;4.65;;;;;;;12.84;81.11;99991.56;6079209;23;20083;-75
2023/03/30 05:03:07;;;;;;;5.10;4.70;;;;;;;12.85;81.00;99984.50;6079487;23;20558;-74
2023/03/30 05:05:36;;;;;;;6.80;4.82;;;;;;;12.97;81.69;100002.88;6103111;23;20028;-74
2023/03/30 05:08:02;;;;;;;5.50;5.10;;;;;;;12.77;80.77;99951.69;6064600;23;20095;-75
2023/03/30 05:10:29;;;;;;;5.20;4.75;;;;;;;12.71;80.94;99952.13;6084409;23;20030;-76
2023/03/30 05:12:56;;;;;;;4.75;4.45;;;;;;;12.37;81.06;99909.84;6080960;23;20056;-74
2023/03/30 05:15:22;;;;;;;4.72;4.45;;;;;;;12.35;81.60;99909.09;6075655;23;20033;-74
2023/03/30 05:17:48;;;;;;;6.50;4.88;;;;;;;12.70;81.95;99973.28;6078059;23;20244;-73
2023/03/30 05:20:17;;;;;;;5.07;4.60;;;;;;;11.97;82.38;99877.66;6077059;23;20083;-74
2023/03/30 05:22:44;;;;;;;6.30;4.68;;;;;;;13.06;82.21;100018.97;6077473;23;20061;-74
2023/03/30 05:25:11;;;;;;;5.18;4.70;;;;;;;12.66;81.62;99948.16;6059482;23;20591;-73
2023/03/30 05:27:37;;;;;;;13.57;5.22;;;;;;;12.90;81.65;99990.28;6078003;23;20032;-75
2023/03/30 05:30:04;;;;;;;5.32;4.93;;;;;;;12.93;81.77;100005.88;6081474;23;20689;-74
2023/03/30 05:32:31;;;;;;;7.97;4.60;;;;;;;12.54;82.43;99955.97;6079693;23;20084;-74
2023/03/30 05:34:57;;;;;;;5.53;5.05;;;;;;;12.77;83.34;100021.94;6080386;23;20048;-73
2023/03/30 05:37:24;;;;;;;5.47;4.68;;;;;;;12.40;83.00;99963.19;6079112;23;20091;-72
2023/03/30 05:39:50;;;;;;;8.90;4.70;;;;;;;12.62;83.26;99987.00;6066848;23;20053;-74
2023/03/30 05:42:17;;;;;;;5.13;4.72;;;;;;;12.41;83.45;99973.63;6103526;23;20041;-73
2023/03/30 05:44:44;;;;;;;4.85;4.60;;;;;;;12.67;83.58;100027.03;6061011;23;20030;-73
2023/03/30 05:47:11;;;;;;;5.00;4.60;;;;;;;12.35;84.00;99995.94;6100955;23;20404;-72
2023/03/30 05:49:37;;;;;;;5.50;5.10;;;;;;;12.59;83.97;100034.63;6077274;23;20097;-73
2023/03/30 05:52:04;;;;;;;5.13;4.72;;;;;;;12.25;84.42;99992.28;6081048;23;20622;-73
2023/03/30 05:54:30;;;;;;;4.90;4.60;;;;;;;12.16;83.85;99980.59;6061476;23;20508;-72
2023/03/30 05:56:57;;;;;;;5.13;4.78;;;;;;;12.43;84.45;100018.22;6080212;23;21368;-73
2023/03/30 05:59:24;;;;;;;7.05;4.70;;;;;;;12.57;83.98;100053.16;6079250;23;20460;-73
2023/03/30 06:01:50;;;;;;;4.57;4.38;;;;;;;12.61;83.58;100053.78;6082344;23;20225;-73
2023/03/30 06:04:17;;;;;;;5.03;4.60;;;;;;;12.68;82.76;100044.47;6082259;23;20022;-72
2023/03/30 06:06:43;;;;;;;4.78;4.38;;;;;;;12.55;82.09;99999.78;6086361;23;20240;-72
2023/03/30 06:09:10;;;;;;;6.25;4.93;;;;;;;12.63;81.90;100019.44;6060402;23;20047;-73
2023/03/30 06:11:36;;;;;;;5.00;4.75;;;;;;;12.58;81.80;99996.06;6078503;23;20014;-72
2023/03/30 06:14:03;;;;;;;4.88;4.57;;;;;;;12.35;81.26;99945.94;6077937;23;20022;-72
2023/03/30 06:16:30;;;;;;;5.53;5.13;;;;;;;12.61;80.35;99976.59;6081568;23;20018;-70
2023/03/30 06:18:57;;;;;;;5.18;4.85;;;;;;;12.72;79.83;99974.03;6074961;23;20030;-72
2023/03/30 06:21:24;;;;;;;4.90;4.60;;;;;;;12.74;80.42;99965.06;6061752;23;20003;-73
2023/03/30 06:23:50;;;;;;;5.10;4.70;;;;;;;12.96;80.61;99993.28;6079817;23;20029;-73
2023/03/30 06:26:17;;;;;;;4.55;4.35;;;;;;;13.01;79.86;100005.28;6061541;23;20179;-73
2023/03/30 06:28:45;;;;;;;4.70;4.50;;;;;;;12.95;80.25;99981.09;6074434;23;20120;-73
2023/03/30 06:31:11;;;;;;;5.40;5.00;;;;;;;12.98;79.76;99988.75;6081304;23;20394;-73
2023/03/30 06:33:38;;;;;;;7.97;4.70;;;;;;;12.65;80.28;99949.94;6080040;23;20523;-73
2023/03/30 06:36:18;;;;;;;5.15;4.70;;;;;;;13.01;80.54;100011.41;6079195;23;20037;-72
2023/03/30 06:38:45;;;;;;;5.13;4.82;;;;;;;12.76;79.22;99939.44;6072580;23;20041;-73
2023/03/30 06:41:11;;;;;;;4.72;4.47;;;;;;;12.98;79.38;99983.47;6075885;23;20319;-72
2023/03/30 06:43:39;;;;;;;4.95;4.65;;;;;;;13.26;79.38;100014.84;6081717;23;20047;-73
2023/03/30 06:46:06;;;;;;;5.40;4.90;;;;;;;13.14;79.00;99988.44;6075229;23;20025;-73
2023/03/30 06:48:33;;;;;;;5.32;4.85;;;;;;;13.36;79.00;100007.97;6076927;23;20017;-73
2023/03/30 06:51:01;;;;;;;4.65;4.45;;;;;;;13.67;78.56;100024.09;6076419;23;20480;-72
2023/03/30 06:53:28;;;;;;;13.20;4.70;;;;;;;14.09;76.37;100034.94;6103579;23;20511;-72
2023/03/30 06:55:56;;;;;;;5.35;4.85;;;;;;;14.40;75.57;100019.38;6098683;23;20018;-73
2023/03/30 06:58:24;;;;;;;4.72;4.43;;;;;;;14.51;74.95;100008.78;6055495;23;20685;-73
2023/03/30 07:00:51;;;;;;;4.90;4.60;;;;;;;14.46;73.75;99989.84;6074477;23;20018;-72
2023/03/30 07:03:18;;;;;;;5.60;5.20;;;;;;;14.31;73.84;99974.28;6078126;23;20270;-73
2023/03/30 07:05:48;;;;;;;5.20;4.90;;;;;;;13.98;73.70;99929.44;6073740;23;20037;-71
2023/03/30 07:08:16;;;;;;;7.10;4.70;;;;;;;13.81;73.99;99918.44;6054614;23;20022;-72
2023/03/30 07:10:42;;;;;;;4.97;4.68;;;;;;;14.13;74.88;99988.91;6079669;23;20045;-73
2023/03/30 07:13:09;;;;;;;5.15;4.75;;;;;;;14.15;75.26;100016.00;6058040;23;20026;-72
2023/03/30 07:15:35;;;;;;;7.32;4.93;;;;;;;14.10;76.17;99994.44;6077002;23;20029;-72
2023/03/30 07:18:04;;;;;;;5.05;4.75;;;;;;;14.13;75.62;99981.84;6077192;23;20406;-73
2023/03/30 07:20:31;;;;;;;4.97;4.78;;;;;;;14.40;75.70;100011.47;6069779;23;20041;-73
2023/03/30 07:22:57;;;;;;;5.05;4.65;;;;;;;14.42;75.78;100036.75;6060354;23;20104;-74
2023/03/30 07:25:23;;;;;;;5.05;4.75;;;;;;;14.22;75.72;99984.72;6076920;23;20100;-73
2023/03/30 07:27:50;;;;;;;5.22;4.93;;;;;;;14.20;75.79;100000.66;6079110;23;20034;-73
2023/03/30 07:30:16;;;;;;;5.47;5.07;;;;;;;13.73;76.79;99957.72;6075777;23;20033;-74
2023/03/30 07:32:49;;;;;;;5.25;4.95;;;;;;;14.10;77.92;100041.94;6075336;23;20075;-72
2023/03/30 07:35:17;;;;;;;4.97;4.68;;;;;;;14.20;78.95;100056.09;6094601;23;20093;-73
2023/03/30 07:37:43;;;;;;;5.70;5.20;;;;;;;14.34;78.62;100061.13;6074189;23;20026;-73
2023/03/30 07:40:11;;;;;;;5.43;5.13;;;;;;;14.31;78.23;100048.19;6073391;23;20029;-73
2023/03/30 07:42:38;;;;;;;5.30;5.00;;;;;;;14.29;78.49;100054.53;6078353;23;20179;-73
2023/03/30 07:45:08;;;;;;;5.68;5.22;;;;;;;14.19;78.29;100043.84;6074676;23;20236;-73
2023/03/30 07:47:36;;;;;;;9.07;5.40;;;;;;;14.23;78.31;100057.63;6078318;23;20029;-72
2023/03/30 07:50:02;;;;;;;7.20;4.95;;;;;;;14.23;78.48;100055.84;6076578;23;20037;-73
2023/03/30 07:52:29;;;;;;;5.10;4.63;;;;;;;14.03;78.46;100011.69;6077625;23;20122;-72
2023/03/30 07:54:55;;;;;;;5.07;4.78;;;;;;;14.08;78.32;100047.31;6051612;23;20030;-72
2023/03/30 07:57:22;;;;;;;5.10;4.80;;;;;;;14.18;77.87;100079.13;6074395;23;20157;-72
2023/03/30 07:59:49;;;;;;;5.15;4.80;;;;;;;13.13;78.02;100005.22;6099135;23;20046;-74
2023/03/30 08:02:16;;;;;;;4.70;4.40;;;;;;;12.75;81.97;100037.00;6071813;23;20122;-73
2023/03/30 08:04:43;;;;;;;4.38;4.18;;;;;;;12.56;84.39;100058.50;6056945;23;20631;-73
2023/03/30 08:07:10;;;;;;;4.88;4.53;;;;;;;12.43;88.06;100105.06;6079594;23;20429;-72
2023/03/30 08:09:37;;;;;;;5.32;4.88;;;;;;;12.06;89.88;100090.03;6059191;23;20083;-73
2023/03/30 08:12:04;;;;;;;5.25;4.75;;;;;;;12.51;91.40;100176.47;6080507;23;20010;-71
2023/03/30 08:14:31;;;;;;;6.75;5.53;;;;;;;12.56;93.02;100182.22;6080688;23;20237;-72
2023/03/30 08:16:57;;;;;;;4.32;4.13;;;;;;;12.47;91.24;100135.47;6079706;23;20504;-72
2023/03/30 08:19:24;;;;;;;7.28;4.32;;;;;;;12.77;89.83;100175.47;6079528;23;20022;-74
2023/03/30 08:21:51;;;;;;;5.60;5.07;;;;;;;12.37;90.13;100122.97;6082103;23;20074;-71
2023/03/30 08:24:17;;;;;;;4.95;4.43;;;;;;;12.73;90.63;100179.28;6077591;23;20460;-72
2023/03/30 08:26:43;;;;;;;4.60;4.40;;;;;;;12.83;91.66;100199.69;6077398;23;20101;-72
2023/03/30 08:29:11;;;;;;;5.43;4.93;;;;;;;12.49;92.88;100152.03;6082558;23;20495;-73
2023/03/30 08:31:38;;;;;;;4.25;4.05;;;;;;;12.51;94.31;100172.03;6079731;23;20084;-73
2023/03/30 08:34:05;;;;;;;6.85;5.03;;;;;;;12.55;94.52;100173.50;6060041;23;20046;-72
2023/03/30 08:36:32;;;;;;;6.78;4.70;;;;;;;12.86;93.93;100216.13;6077841;23;20030;-72
2023/03/30 08:38:59;;;;;;;4.82;4.63;;;;;;;13.07;93.94;100226.09;6080380;23;20093;-74
2023/03/30 08:41:28;;;;;;;4.78;4.57;;;;;;;13.04;93.45;100216.63;6080313;23;20432;-73
2023/03/30 08:44:00;;;;;;;5.30;5.00;;;;;;;12.96;94.75;100229.50;6077936;23;20025;-73
2023/03/30 08:46:27;;;;;;;5.70;5.20;;;;;;;12.88;94.94;100195.78;6077838;23;20006;-73
2023/03/30 08:48:59;;;;;;;5.75;5.25;;;;;;;13.04;94.04;100221.91;6058829;23;20810;-73
2023/03/30 08:51:27;;;;;;;6.38;5.13;;;;;;;13.26;94.21;100228.31;6109467;23;20331;-73
2023/03/30 08:54:04;;;;;;;7.43;4.50;;;;;;;13.39;91.77;100194.88;6058316;23;20077;-75
2023/03/30 08:56:38;;;;;;;4.50;4.30;;;;;;;13.96;89.09;100219.75;6084086;23;20030;-75
2023/03/30 08:59:51;;;;;;;5.07;4.78;;;;;;;14.58;84.30;100192.22;6083102;23;20020;-73
2023/03/30 09:02:17;;;;;;;4.65;4.38;;;;;;;14.97;79.37;100153.06;6103790;23;20018;-75
2023/03/30 09:05:00;;;;;;;5.00;4.70;;;;;;;14.55;75.67;99982.03;6107000;23;20347;-75
2023/03/30 09:07:32;;;;;;;10.25;5.80;;;;;;;15.23;73.28;100086.72;6085248;23;20240;-74
2023/03/30 09:10:02;;;;;;;4.38;4.18;;;;;;;14.64;80.88;100172.44;6061954;23;20022;-75
2023/03/30 09:12:47;;;;;;;4.75;4.50;;;;;;;13.65;90.34;100256.28;6081719;23;20033;-75
2023/03/30 09:15:28;;;;;;;5.03;4.57;;;;;;;12.89;95.06;100262.47;6082614;23;20150;-74
2023/03/30 09:18:18;;;;;;;8.52;4.35;;;;;;;12.34;100.00;100310.00;6079224;23;20034;-74
2023/03/30 09:20:49;;;;;;;4.20;4.00;;;;;;;11.58;100.00;100332.34;6086985;23;20536;-75
2023/03/30 09:23:17;;;;;;;11.57;4.47;;;;;;;10.89;100.00;100325.19;6060076;23;20086;-74
2023/03/30 09:26:28;;;;;;;5.10;4.28;;;;;;;11.09;100.00;100380.00;6107922;23;20405;-75
2023/03/30 09:29:12;;;;;;;10.75;5.13;;;;;;;11.02;100.00;100406.69;6038453;23;20022;-75
2023/03/30 09:31:46;;;;;;;4.30;4.10;;;;;;;10.60;100.00;100330.38;6088902;23;20021;-75
2023/03/30 09:34:39;;;;;;;4.53;4.05;;;;;;;10.93;100.00;100419.44;6087273;23;20223;-73
2023/03/30 09:37:17;;;;;;;;;;;;;;;11.04;100.00;100421.44;6105691;23;20138;-74
2023/03/30 09:39:45;;;;;;;4.50;4.20;;;;;;;11.04;100.00;100424.06;6056772;23;19965;-74
2023/03/30 09:42:32;;;;;;;4.20;4.00;;;;;;;11.11;100.00;100438.53;6106602;23;20033;-74
2023/03/30 09:45:10;;;;;;;4.20;4.00;;;;;;;11.00;100.00;100435.66;6082761;23;20026;-74
2023/03/30 09:47:41;;;;;;;5.07;4.40;;;;;;;10.64;100.00;100396.66;6068035;23;20071;-75
2023/03/30 09:50:17;;;;;;;4.32;4.13;;;;;;;10.79;100.00;100422.03;6055214;23;20134;-73
2023/03/30 09:53:02;;;;;;;5.60;4.63;;;;;;;10.21;100.00;100357.09;6081715;23;20036;-74
2023/03/30 09:55:36;;;;;;;5.13;4.70;;;;;;;10.74;100.00;100447.66;6079837;23;20033;-74
2023/03/30 09:58:10;;;;;;;7.25;4.97;;;;;;;10.78;100.00;100444.81;6081425;23;20022;-75
2023/03/30 10:00:38;;;;;;;5.65;4.18;;;;;;;10.71;100.00;100422.47;6077457;23;20025;-74
2023/03/30 10:03:07;;;;;;;4.28;4.07;;;;;;;10.66;100.00;100395.63;6052250;23;20030;-74
2023/03/30 10:05:38;;;;;;;6.32;4.07;;;;;;;11.03;100.00;100440.75;6079606;23;20042;-75
2023/03/30 10:08:19;;;;;;;4.47;4.22;;;;;;;10.65;100.00;100370.31;6053703;23;20022;-76
2023/03/30 10:10:55;;;;;;;5.68;5.10;;;;;;;11.15;100.00;100429.53;6077479;23;20285;-75
2023/03/30 10:13:45;;;;;;;4.30;4.07;;;;;;;10.77;100.00;100355.63;6058038;23;20477;-73
2023/03/30 10:16:28;;;;;;;4.47;4.28;;;;;;;10.75;100.00;100357.50;6077393;23;20068;-73
2023/03/30 10:18:59;;;;;;;4.65;4.35;;;;;;;11.23;100.00;100399.34;6055979;23;20421;-73
2023/03/30 10:21:34;;;;;;;5.13;4.70;;;;;;;11.23;100.00;100386.22;6078439;23;20544;-73
2023/03/30 10:24:22;;;;;;;4.40;4.20;;;;;;;11.60;100.00;100418.97;6079268;23;20108;-73
2023/03/30 10:26:56;;;;;;;7.72;4.20;;;;;;;11.41;100.00;100384.25;6081351;23;20260;-73
2023/03/30 10:29:25;;;;;;;4.53;4.32;;;;;;;11.94;100.00;100425.66;6092058;23;20041;-73
2023/03/30 10:31:58;;;;;;;5.30;4.47;;;;;;;12.27;100.00;100424.50;6063239;23;20014;-73
2023/03/30 10:34:31;;;;;;;5.68;4.18;;;;;;;12.44;100.00;100412.03;6074333;23;20058;-75
2023/03/30 10:36:58;;;;;;;4.80;4.40;;;;;;;12.18;100.00;100325.94;6049825;23;20284;-74
2023/03/30 10:39:31;;;;;;;4.50;4.18;;;;;;;12.42;100.00;100345.50;6100362;23;20482;-73
2023/03/30 10:42:01;;;;;;;7.65;4.25;;;;;;;12.32;100.00;100296.09;6072679;23;20113;-74
2023/03/30 10:44:34;;;;;;;4.30;4.10;;;;;;;12.84;100.00;100348.88;6076732;23;20030;-73
2023/03/30 10:47:40;;;;;;;4.15;3.95;;;;;;;13.13;100.00;100347.72;6077624;23;20445;-73
2023/03/30 10:50:18;;;;;;;4.70;4.40;;;;;;;13.24;99.57;100331.16;6044696;23;20370;-73
2023/03/30 10:52:57;;;;;;;5.50;4.30;;;;;;;13.54;97.21;100333.50;6075599;23;20607;-75
2023/03/30 10:55:38;;;;;;;4.20;4.00;;;;;;;13.59;95.96;100279.59;6078343;23;20130;-73
2023/03/30 10:58:19;;;;;;;15.63;4.80;;;;;;;14.16;92.67;100323.81;6076352;23;20192;-75
2023/03/30 11:01:16;;;;;;;7.57;5.35;;;;;;;14.51;89.77;100313.31;6077899;23;20473;-75
2023/03/30 11:03:47;;;;;;;4.43;4.22;;;;;;;14.56;84.43;100261.00;6108800;23;20028;-74
2023/03/30 11:06:20;;;;;;;5.55;5.15;;;;;;;14.43;81.29;100217.13;6076935;23;20040;-74
2023/03/30 11:08:51;;;;;;;4.60;4.40;;;;;;;14.09;81.20;100156.34;6050041;23;20026;-74
2023/03/30 11:11:26;;;;;;;4.90;4.60;;;;;;;14.75;81.23;100246.38;6072245;23;20030;-73
2023/03/30 11:14:00;;;;;;;5.03;4.60;;;;;;;14.70;78.72;100207.13;6052949;23;20018;-73
2023/03/30 11:16:46;;;;;;;4.90;4.60;;;;;;;14.05;79.52;100128.50;6077375;23;20358;-73
2023/03/30 11:19:23;;;;;;;4.70;4.50;;;;;;;14.40;79.89;100207.66;6077424;23;20029;-75
2023/03/30 11:22:20;;;;;;;4.85;4.53;;;;;;;14.38;79.95;100228.03;6056973;23;20026;-75
2023/03/30 11:24:50;;;;;;;5.05;4.80;;;;;;;13.69;79.59;100128.53;6080392;23;20029;-74
2023/03/30 11:27:29;;;;;;;4.82;4.63;;;;;;;14.60;79.85;100261.59;6074780;23;20228;-74
2023/03/30 11:30:04;;;;;;;4.85;4.63;;;;;;;14.67;79.96;100225.88;6074445;23;20092;-74
2023/03/30 11:32:52;;;;;;;8.32;5.00;;;;;;;14.02;78.40;100091.81;6077440;23;20032;-74
2023/03/30 11:35:49;;;;;;;5.00;4.70;;;;;;;14.99;78.36;100237.50;6080371;23;20024;-75
2023/03/30 11:38:43;;;;;;;9.15;4.80;;;;;;;14.90;77.58;100194.16;6098110;23;20100;-74
2023/03/30 11:41:15;;;;;;;5.68;5.15;;;;;;;14.90;77.25;100170.38;6038407;23;20022;-73
2023/03/30 11:43:42;;;;;;;6.13;5.63;;;;;;;14.95;76.38;100178.78;6105181;23;20091;-74
2023/03/30 11:46:19;;;;;;;5.00;4.70;;;;;;;15.36;76.50;100211.66;6081843;23;20033;-75